UTNU

Details ICAO UTNU (UGC)
Name URGENCH
Region Tajikistan, Turkmenistan and Uzbekistan
Timezone Asia/Samarkand (UTC+5.0)
Plans Departing 2
Arriving 5
Stats Elevation 320 ft / 98 m (AMSL)
Location 41.583093° 60.643350°
Runways 1
Magnetic Variation 6.217° E
Sunrise 2017-12-13 03:16:56 UTC / 2017-12-13 08:16:56 Local
Sunset 2017-12-13 12:29:01 UTC / 2017-12-13 17:29:01 Local
Advertisement - Login to hide

Runways

ID Width Length Bearing (true) Bearing (mag) Surface Threshold Offset Overrun Length
13 165 ft / 50 m 11,063 ft / 3,372 m 138.91° 132.69° Asphalt 0 ft / 0 m 164 ft / 50 m
31 165 ft / 50 m 11,063 ft / 3,372 m 318.93° 312.71° Asphalt 0 ft / 0 m 164 ft / 50 m

Map

Weather


0- 5 10 15 20 25 30 35+ Temperature / ° C

Clouds and Precipitation
Forecast for 2017-12-13 06:00 UTC. Updated 7 minutes ago

Ground ~20,000 ft ~40,000 ft Winds

METAR

UTNU 130500Z 08010KT 9999 OVC011 M07/M10 Q1032 R13/CLRD70 NOSIG

TAF

TAF UTNU 122305Z 1300/1324 04010G20KT 7000 OVC008 TEMPO 1300/1306 06008KT 3000 -SN BR OVC005 PROB30 TEMPO 1300/1306 0800 -FZFG VV002

Frequencies

Tower 118.30 MHz TWR
Approach 126.00 MHz APP
Warning: Do not use this data for real-world aviation or navigation. No guarantee of current accuracy is given.